Time;durP1;ratioP1;P1;durP2;ratioP2;P2;SDS_P1;SDS_P2;PMS_P1;PMS_P2;Temp;Humidity;BMP_temperature;BMP_pressure;BME280_temperature;BME280_humidity;BME280_pressure;Samples;Min_cycle;Max_cycle;Signal;HPM_P1;HPM_P2
2022/09/28 00:01:31;;;;;;;;;;;16.60;34.30;;;;;;6096077;23;19927;-86
2022/09/28 00:03:58;;;;;;;;;;;16.60;34.00;;;;;;6119278;23;19917;-86
2022/09/28 00:06:26;;;;;;;;;;;16.60;35.20;;;;;;6120191;23;19917;-86
2022/09/28 00:08:53;;;;;;;;;;;16.60;34.10;;;;;;6119144;23;19993;-86
2022/09/28 00:11:21;;;;;;;;;;;16.70;34.40;;;;;;6120400;23;19917;-87
2022/09/28 00:13:51;;;;;;;;;;;16.60;35.10;;;;;;6119073;23;19948;-86
2022/09/28 00:16:19;;;;;;;;;;;16.50;34.40;;;;;;6120102;23;20307;-85
2022/09/28 00:18:46;;;;;;;;;;;16.60;34.50;;;;;;6119860;23;20254;-86
2022/09/28 00:21:14;;;;;;;;;;;16.60;34.90;;;;;;6107197;23;19928;-85
2022/09/28 00:26:27;;;;;;;;;;;16.50;34.50;;;;;;6096665;23;19918;-86
2022/09/28 00:28:56;;;;;;;;;;;16.50;34.60;;;;;;6119784;23;19917;-86
2022/09/28 00:31:24;;;;;;;;;;;16.50;34.60;;;;;;6119208;23;19917;-86
2022/09/28 00:33:51;;;;;;;;;;;16.50;34.50;;;;;;6120223;23;20335;-86
2022/09/28 00:36:18;;;;;;;;;;;16.50;34.60;;;;;;6118301;23;19917;-86
2022/09/28 00:38:45;;;;;;;;;;;16.50;34.80;;;;;;6119594;23;19917;-86
2022/09/28 00:41:12;;;;;;;;;;;16.50;35.10;;;;;;6118914;23;19921;-86
2022/09/28 00:43:38;;;;;;;;;;;16.50;35.20;;;;;;6119705;23;20433;-86
2022/09/28 00:46:11;;;;;;;;;;;16.40;35.20;;;;;;6118701;23;19944;-86
2022/09/28 00:48:39;;;;;;;;;;;16.50;34.80;;;;;;6119719;23;19921;-86
2022/09/28 00:51:08;;;;;;;;;;;16.40;34.80;;;;;;6118930;23;19917;-86
2022/09/28 00:53:36;;;;;;;;;;;16.40;35.20;;;;;;6119751;23;19961;-87
2022/09/28 00:56:10;;;;;;;;;;;16.40;35.40;;;;;;6119803;23;19988;-86
2022/09/28 00:58:44;;;;;;;;;;;16.40;35.20;;;;;;6119159;23;20399;-86
2022/09/28 01:01:11;;;;;;;;;;;16.30;36.10;;;;;;6120350;23;20394;-86
2022/09/28 01:03:44;;;;;;;;;;;16.30;35.90;;;;;;6118964;23;19917;-87
2022/09/28 01:06:15;;;;;;;;;;;16.30;35.80;;;;;;6120051;23;20295;-86
2022/09/28 01:08:43;;;;;;;;;;;16.20;35.70;;;;;;6118913;23;19944;-86
2022/09/28 01:11:10;;;;;;;;;;;16.20;35.90;;;;;;6119229;23;19918;-86
2022/09/28 01:13:38;;;;;;;;;;;16.20;36.50;;;;;;6119060;23;19921;-86
2022/09/28 01:16:24;;;;;;;;;;;16.20;36.40;;;;;;6096572;23;19992;-86
2022/09/28 01:19:17;;;;;;;;;;;16.20;36.50;;;;;;6095793;23;20399;-86
2022/09/28 01:21:52;;;;;;;;;;;16.10;37.00;;;;;;6072401;23;19925;-86
2022/09/28 01:24:19;;;;;;;;;;;16.10;36.80;;;;;;6119659;23;19944;-86
2022/09/28 01:26:46;;;;;;;;;;;16.10;36.70;;;;;;6118676;23;20236;-86
2022/09/28 01:29:18;;;;;;;;;;;16.20;37.10;;;;;;6119382;23;19943;-86
2022/09/28 01:31:46;;;;;;;;;;;16.10;37.00;;;;;;6118741;23;20249;-86
2022/09/28 01:34:16;;;;;;;;;;;16.10;37.10;;;;;;6119462;23;20338;-87
2022/09/28 01:36:46;;;;;;;;;;;16.20;36.90;;;;;;6118620;23;19966;-87
2022/09/28 01:39:25;;;;;;;;;;;16.10;37.50;;;;;;6094850;23;19921;-87
2022/09/28 01:41:55;;;;;;;;;;;16.10;37.50;;;;;;6118625;23;19995;-86
2022/09/28 01:44:24;;;;;;;;;;;16.10;37.90;;;;;;6118852;23;19940;-86
2022/09/28 01:46:51;;;;;;;;;;;16.00;38.00;;;;;;6118516;23;19921;-87
2022/09/28 01:49:33;;;;;;;;;;;16.00;38.10;;;;;;6118894;23;20258;-86
2022/09/28 01:52:03;;;;;;;;;;;16.00;37.90;;;;;;6118640;23;19996;-83
2022/09/28 01:54:33;;;;;;;;;;;16.00;38.20;;;;;;6119265;23;19940;-86
2022/09/28 01:57:03;;;;;;;;;;;16.00;38.00;;;;;;6118599;23;20352;-87
2022/09/28 01:59:31;;;;;;;;;;;16.00;37.30;;;;;;6119073;23;20310;-86
2022/09/28 02:02:00;;;;;;;;;;;16.10;37.30;;;;;;6125163;23;19917;-79
2022/09/28 02:04:31;;;;;;;;;;;16.10;37.70;;;;;;6131729;23;19924;-79
2022/09/28 02:07:01;;;;;;;;;;;16.10;39.10;;;;;;6130500;23;19988;-79
2022/09/28 02:09:32;;;;;;;;;;;16.00;38.50;;;;;;6129006;23;19940;-78
2022/09/28 02:12:02;;;;;;;;;;;16.00;37.60;;;;;;6130563;23;19968;-79
2022/09/28 02:14:29;;;;;;;;;;;16.00;38.90;;;;;;6136501;23;19941;-79
2022/09/28 02:16:56;;;;;;;;;;;15.90;39.80;;;;;;6133755;23;19956;-80
2022/09/28 02:19:25;;;;;;;;;;;15.70;40.90;;;;;;6133467;23;20303;-79
2022/09/28 02:22:03;;;;;;;;;;;15.50;41.40;;;;;;6129982;23;19952;-79
2022/09/28 02:24:33;;;;;;;;;;;15.50;41.40;;;;;;6131576;23;19961;-80
2022/09/28 02:27:02;;;;;;;;;;;15.40;42.20;;;;;;6129857;23;19957;-79
2022/09/28 02:29:28;;;;;;;;;;;15.30;43.40;;;;;;6129790;23;19932;-80
2022/09/28 02:31:55;;;;;;;;;;;15.00;46.10;;;;;;6137840;23;19925;-80
2022/09/28 02:34:22;;;;;;;;;;;14.50;47.40;;;;;;6134346;23;19980;-79
2022/09/28 02:36:49;;;;;;;;;;;14.40;48.20;;;;;;6129911;23;19948;-78
2022/09/28 02:39:16;;;;;;;;;;;14.40;48.10;;;;;;6129583;23;20368;-79
2022/09/28 02:42:02;;;;;;;;;;;14.40;48.10;;;;;;6127445;23;19940;-79
2022/09/28 02:44:42;;;;;;;;;;;14.30;48.40;;;;;;6121285;23;20331;-81
2022/09/28 02:47:14;;;;;;;;;;;14.10;49.40;;;;;;6118251;23;20000;-81
2022/09/28 02:49:56;;;;;;;;;;;14.00;49.40;;;;;;6118450;23;19917;-81
2022/09/28 02:52:29;;;;;;;;;;;13.90;50.70;;;;;;6118056;23;20258;-81
2022/09/28 02:55:10;;;;;;;;;;;13.70;49.80;;;;;;6118785;23;19921;-81
2022/09/28 02:57:56;;;;;;;;;;;13.70;49.50;;;;;;6064774;23;19948;-81
2022/09/28 03:00:23;;;;;;;;;;;13.70;50.20;;;;;;6065409;23;20340;-81
2022/09/28 03:02:57;;;;;;;;;;;13.60;50.70;;;;;;6067279;23;20291;-81
2022/09/28 03:05:33;;;;;;;;;;;13.50;51.70;;;;;;6066901;23;20291;-81
2022/09/28 03:07:59;;;;;;;;;;;13.50;51.90;;;;;;6067372;23;20000;-81
2022/09/28 03:10:36;;;;;;;;;;;13.50;52.10;;;;;;6066965;23;20301;-81
2022/09/28 03:13:03;;;;;;;;;;;13.50;52.30;;;;;;6067557;23;19917;-81
2022/09/28 03:15:31;;;;;;;;;;;13.50;52.10;;;;;;6066652;23;19988;-81
2022/09/28 03:17:58;;;;;;;;;;;13.50;53.30;;;;;;6067550;23;19996;-80
2022/09/28 03:20:26;;;;;;;;;;;13.50;53.10;;;;;;6068046;23;19921;-80
2022/09/28 03:22:53;;;;;;;;;;;13.40;53.20;;;;;;6067076;23;19917;-80
2022/09/28 03:25:39;;;;;;;;;;;13.40;53.60;;;;;;6103935;23;19923;-81
2022/09/28 03:28:06;;;;;;;;;;;13.30;55.40;;;;;;6120178;23;19917;-81
2022/09/28 03:30:33;;;;;;;;;;;13.10;55.00;;;;;;6119772;23;20005;-81
2022/09/28 03:33:01;;;;;;;;;;;13.10;55.40;;;;;;6120384;23;19996;-81
2022/09/28 03:35:28;;;;;;;;;;;13.00;55.50;;;;;;6119824;23;19921;-81
2022/09/28 03:37:55;;;;;;;;;;;13.00;56.80;;;;;;6120118;23;19917;-81
2022/09/28 03:40:21;;;;;;;;;;;12.90;56.50;;;;;;6119502;23;19917;-81
2022/09/28 03:42:48;;;;;;;;;;;12.90;56.90;;;;;;6120147;23;19976;-81
2022/09/28 03:45:15;;;;;;;;;;;12.80;56.80;;;;;;6120042;23;19917;-80
2022/09/28 03:47:45;;;;;;;;;;;12.80;56.70;;;;;;6107444;23;19940;-81
2022/09/28 03:50:12;;;;;;;;;;;12.80;57.90;;;;;;6095669;23;19984;-80
2022/09/28 03:52:39;;;;;;;;;;;12.70;58.10;;;;;;6119295;23;19952;-80
2022/09/28 03:55:06;;;;;;;;;;;12.70;58.20;;;;;;6120203;23;19925;-80
2022/09/28 03:57:32;;;;;;;;;;;12.70;58.80;;;;;;6119501;23;20000;-80
2022/09/28 03:59:59;;;;;;;;;;;12.70;59.30;;;;;;6120181;23;19918;-80
2022/09/28 04:02:26;;;;;;;;;;;12.60;60.00;;;;;;6119211;23;20262;-81
2022/09/28 04:04:53;;;;;;;;;;;12.60;60.10;;;;;;6119558;23;19924;-80
2022/09/28 04:07:19;;;;;;;;;;;12.50;61.30;;;;;;6119496;23;19988;-80
2022/09/28 04:09:46;;;;;;;;;;;12.50;62.30;;;;;;6119581;23;19999;-80
2022/09/28 04:12:13;;;;;;;;;;;12.40;61.50;;;;;;6119679;23;19917;-80
2022/09/28 04:14:39;;;;;;;;;;;12.20;63.20;;;;;;6118620;23;20011;-81
2022/09/28 04:17:06;;;;;;;;;;;12.10;63.10;;;;;;6120028;23;20259;-81
2022/09/28 04:19:33;;;;;;;;;;;12.10;63.60;;;;;;6118723;23;19925;-81
2022/09/28 04:22:00;;;;;;;;;;;12.10;63.30;;;;;;6119927;23;19923;-80
2022/09/28 04:24:27;;;;;;;;;;;12.00;63.90;;;;;;6118929;23;19917;-80
2022/09/28 04:29:14;;;;;;;;;;;11.90;64.40;;;;;;6120027;23;19939;-81
2022/09/28 04:29:40;;;;;;;;;;;11.90;64.20;;;;;;6095843;23;19955;-80
2022/09/28 04:32:07;;;;;;;;;;;11.80;64.90;;;;;;6096966;23;19917;-80
2022/09/28 04:34:33;;;;;;;;;;;11.70;64.90;;;;;;6118688;23;19917;-80
2022/09/28 04:37:04;;;;;;;;;;;11.60;66.20;;;;;;6118979;23;19917;-81
2022/09/28 04:39:31;;;;;;;;;;;11.40;68.10;;;;;;6118929;23;19940;-81
2022/09/28 04:41:57;;;;;;;;;;;11.30;68.10;;;;;;6119663;23;19923;-80
2022/09/28 04:44:24;;;;;;;;;;;11.20;69.30;;;;;;6094778;23;19971;-80
2022/09/28 04:46:51;;;;;;;;;;;11.10;70.10;;;;;;6119584;23;20001;-81
2022/09/28 04:49:17;;;;;;;;;;;11.10;69.70;;;;;;6119634;23;19917;-81
2022/09/28 04:51:44;;;;;;;;;;;11.10;70.30;;;;;;6118658;23;19917;-80
2022/09/28 04:54:11;;;;;;;;;;;11.10;69.50;;;;;;6119506;23;19967;-80
2022/09/28 04:56:38;;;;;;;;;;;11.00;71.20;;;;;;6118602;23;19939;-80
2022/09/28 04:59:05;;;;;;;;;;;11.00;71.90;;;;;;6119575;23;19988;-80
2022/09/28 05:01:31;;;;;;;;;;;11.00;70.30;;;;;;6118472;23;19921;-80
2022/09/28 05:03:58;;;;;;;;;;;11.10;71.00;;;;;;6119070;23;19941;-80
2022/09/28 05:06:27;;;;;;;;;;;11.00;71.40;;;;;;6094392;23;19924;-81
2022/09/28 05:08:56;;;;;;;;;;;11.10;71.60;;;;;;6096572;23;19917;-80
2022/09/28 05:11:23;;;;;;;;;;;11.10;70.80;;;;;;6119344;23;19917;-81
2022/09/28 05:13:49;;;;;;;;;;;11.00;71.60;;;;;;6118404;23;19921;-81
2022/09/28 05:16:16;;;;;;;;;;;11.00;71.10;;;;;;6119161;23;20361;-80
2022/09/28 05:18:43;;;;;;;;;;;10.80;73.10;;;;;;6118171;23;20359;-81
2022/09/28 05:21:14;;;;;;;;;;;10.80;71.90;;;;;;6094803;23;19992;-81
2022/09/28 05:23:44;;;;;;;;;;;10.80;71.10;;;;;;6118468;23;19921;-81
2022/09/28 05:26:11;;;;;;;;;;;10.90;71.20;;;;;;6118934;23;19921;-80
2022/09/28 05:28:38;;;;;;;;;;;10.90;70.90;;;;;;6118103;23;19917;-81
2022/09/28 05:31:04;;;;;;;;;;;10.90;70.30;;;;;;6118929;23;19917;-81
2022/09/28 05:33:31;;;;;;;;;;;10.90;70.40;;;;;;6118395;23;19960;-81
2022/09/28 05:35:59;;;;;;;;;;;11.00;70.60;;;;;;6119224;23;20542;-81
2022/09/28 05:38:28;;;;;;;;;;;11.00;70.60;;;;;;6119031;23;19917;-81
2022/09/28 05:40:55;;;;;;;;;;;11.00;71.30;;;;;;6118590;23;19928;-81
2022/09/28 05:43:21;;;;;;;;;;;11.00;70.40;;;;;;6119385;23;19917;-80
2022/09/28 05:45:48;;;;;;;;;;;11.10;71.40;;;;;;6118359;23;19992;-81
2022/09/28 05:48:21;;;;;;;;;;;11.00;71.30;;;;;;6094688;23;20306;-81
2022/09/28 05:50:51;;;;;;;;;;;11.00;72.60;;;;;;6118296;23;20353;-81
2022/09/28 05:53:18;;;;;;;;;;;11.00;72.10;;;;;;6118327;23;19964;-81
2022/09/28 05:55:45;;;;;;;;;;;10.70;73.70;;;;;;6118377;23;19917;-80
2022/09/28 05:58:12;;;;;;;;;;;10.60;74.50;;;;;;6118917;23;19997;-81
2022/09/28 06:00:39;;;;;;;;;;;10.60;74.40;;;;;;6121152;23;20341;-80
2022/09/28 06:03:07;;;;;;;;;;;10.60;74.60;;;;;;6126663;23;19925;-79
2022/09/28 06:05:35;;;;;;;;;;;10.70;75.50;;;;;;6100295;23;20258;-80
2022/09/28 06:08:03;;;;;;;;;;;10.70;74.60;;;;;;6100105;23;19974;-80
2022/09/28 06:10:31;;;;;;;;;;;10.70;75.00;;;;;;6124423;23;19928;-80
2022/09/28 06:12:58;;;;;;;;;;;10.70;74.60;;;;;;6123905;23;19917;-80
2022/09/28 06:15:26;;;;;;;;;;;10.80;75.30;;;;;;6127042;23;20300;-80
2022/09/28 06:17:56;;;;;;;;;;;10.70;75.50;;;;;;6124974;23;19917;-80
2022/09/28 06:20:24;;;;;;;;;;;10.70;75.90;;;;;;6127215;23;20335;-81
2022/09/28 06:22:52;;;;;;;;;;;10.80;75.10;;;;;;6128318;23;19921;-80
2022/09/28 06:25:20;;;;;;;;;;;10.80;74.20;;;;;;6127632;23;19921;-79
2022/09/28 06:28:03;;;;;;;;;;;10.90;76.10;;;;;;6123541;23;19917;-80
2022/09/28 06:30:32;;;;;;;;;;;10.90;75.20;;;;;;6122398;23;19917;-80
2022/09/28 06:33:00;;;;;;;;;;;11.00;74.90;;;;;;6126685;23;19933;-80
2022/09/28 06:35:29;;;;;;;;;;;11.10;74.40;;;;;;6126248;23;19917;-80
2022/09/28 06:37:56;;;;;;;;;;;11.10;74.50;;;;;;6125615;23;19928;-80
2022/09/28 06:40:23;;;;;;;;;;;11.20;74.70;;;;;;6104193;23;19933;-80
2022/09/28 06:42:57;;;;;;;;;;;11.20;75.60;;;;;;6125852;23;19925;-80
2022/09/28 06:45:24;;;;;;;;;;;11.30;75.20;;;;;;6126059;23;19937;-80
2022/09/28 06:47:53;;;;;;;;;;;11.40;75.70;;;;;;6125789;23;19972;-80
2022/09/28 06:50:19;;;;;;;;;;;11.40;77.50;;;;;;6122566;23;20000;-80
2022/09/28 06:52:48;;;;;;;;;;;11.40;78.90;;;;;;6121420;23;19993;-80
2022/09/28 06:55:15;;;;;;;;;;;11.30;80.40;;;;;;6129326;23;20302;-80
2022/09/28 06:57:41;;;;;;;;;;;11.40;80.00;;;;;;6126700;23;19941;-80
2022/09/28 07:00:09;;;;;;;;;;;11.40;79.10;;;;;;6126962;23;20354;-80
2022/09/28 07:02:36;;;;;;;;;;;11.50;78.00;;;;;;6127241;23;19956;-80
2022/09/28 07:05:03;;;;;;;;;;;11.50;79.60;;;;;;6125382;23;19957;-80
2022/09/28 07:07:30;;;;;;;;;;;11.60;78.10;;;;;;6124642;23;19933;-80
2022/09/28 07:09:56;;;;;;;;;;;11.70;76.60;;;;;;6100450;23;19993;-80
2022/09/28 07:12:24;;;;;;;;;;;11.80;76.10;;;;;;6124504;23;19921;-79
2022/09/28 07:14:56;;;;;;;;;;;11.90;75.70;;;;;;6128558;23;19924;-80
2022/09/28 07:17:23;;;;;;;;;;;12.00;78.70;;;;;;6124751;23;19921;-80
2022/09/28 07:19:56;;;;;;;;;;;12.10;77.20;;;;;;6101618;23;19947;-80
2022/09/28 07:22:28;;;;;;;;;;;12.20;76.00;;;;;;6125930;23;19924;-80
2022/09/28 07:25:08;;;;;;;;;;;12.30;74.70;;;;;;6123082;23;20223;-80
2022/09/28 07:27:36;;;;;;;;;;;12.50;74.10;;;;;;6127101;23;20410;-80
2022/09/28 07:30:06;;;;;;;;;;;12.60;76.20;;;;;;6127856;23;19941;-80
2022/09/28 07:32:36;;;;;;;;;;;12.70;74.80;;;;;;6129240;23;19924;-81
2022/09/28 07:35:09;;;;;;;;;;;12.80;73.80;;;;;;6130560;23;19918;-80
2022/09/28 07:37:36;;;;;;;;;;;12.90;72.90;;;;;;6130897;23;19945;-80
2022/09/28 07:42:49;;;;;;;;;;;12.90;72.30;;;;;;6112452;23;19917;-80
2022/09/28 07:45:16;;;;;;;;;;;13.00;73.90;;;;;;6137465;23;19921;-81
2022/09/28 07:47:44;;;;;;;;;;;13.10;72.90;;;;;;6138453;23;19948;-80
2022/09/28 07:50:11;;;;;;;;;;;13.30;70.90;;;;;;6116961;23;19937;-80
2022/09/28 07:52:38;;;;;;;;;;;13.50;70.00;;;;;;6140114;23;20314;-81
2022/09/28 07:55:05;;;;;;;;;;;13.60;68.90;;;;;;6140317;23;19917;-80
2022/09/28 07:57:34;;;;;;;;;;;13.80;68.40;;;;;;6142312;23;19924;-80
2022/09/28 08:00:01;;;;;;;;;;;14.10;67.60;;;;;;6141812;23;19905;-81
2022/09/28 08:02:32;;;;;;;;;;;14.40;66.90;;;;;;6141461;23;19957;-81
2022/09/28 08:04:59;;;;;;;;;;;14.50;67.00;;;;;;6142393;23;20358;-80
2022/09/28 08:07:26;;;;;;;;;;;14.70;67.40;;;;;;6138410;23;19928;-80
2022/09/28 08:09:52;;;;;;;;;;;14.80;66.70;;;;;;6145281;23;19905;-81
2022/09/28 08:12:20;;;;;;;;;;;15.00;64.00;;;;;;6122276;23;19901;-81
2022/09/28 08:14:47;;;;;;;;;;;15.20;61.80;;;;;;6143946;23;19901;-80
2022/09/28 08:17:14;;;;;;;;;;;15.40;59.70;;;;;;6135962;23;19921;-79
2022/09/28 08:22:31;;;;;;;;;;;15.90;57.80;;;;;;6123491;23;19901;-82
2022/09/28 08:24:57;;;;;;;;;;;16.20;55.40;;;;;;6145938;23;19945;-80
2022/09/28 08:27:24;;;;;;;;;;;16.50;52.40;;;;;;6120534;23;19905;-82
2022/09/28 08:29:51;;;;;;;;;;;16.70;50.40;;;;;;6146403;23;19909;-80
2022/09/28 08:32:18;;;;;;;;;;;17.20;49.30;;;;;;6146010;23;19924;-81
2022/09/28 08:34:45;;;;;;;;;;;17.40;51.90;;;;;;6146308;23;19912;-81
2022/09/28 08:37:12;;;;;;;;;;;17.50;49.50;;;;;;6145588;23;19902;-80
2022/09/28 08:39:39;;;;;;;;;;;17.60;51.50;;;;;;6147153;23;19902;-82
2022/09/28 08:42:31;;;;;;;;;;;17.50;50.80;;;;;;6145231;23;19928;-81
2022/09/28 08:45:04;;;;;;;;;;;17.60;50.10;;;;;;6119336;23;19925;-81
2022/09/28 08:50:23;;;;;;;;;;;18.10;50.10;;;;;;6122107;23;19916;-81
2022/09/28 08:52:52;;;;;;;;;;;18.20;50.40;;;;;;6146593;23;19902;-81
2022/09/28 08:55:19;;;;;;;;;;;18.30;50.60;;;;;;6146406;23;19909;-82
2022/09/28 08:57:51;;;;;;;;;;;18.50;50.50;;;;;;6147902;23;19909;-81
2022/09/28 09:00:19;;;;;;;;;;;18.70;51.10;;;;;;6144944;23;19908;-82
2022/09/28 09:02:47;;;;;;;;;;;18.70;51.20;;;;;;6144976;23;19918;-82
2022/09/28 09:05:18;;;;;;;;;;;18.60;50.60;;;;;;6120889;23;19966;-82
2022/09/28 09:08:04;;;;;;;;;;;18.70;52.70;;;;;;6138989;23;19941;-82
2022/09/28 09:10:32;;;;;;;;;;;18.80;51.20;;;;;;6143772;23;19921;-82
2022/09/28 09:13:03;;;;;;;;;;;19.10;50.40;;;;;;6146760;23;19928;-82
2022/09/28 09:15:37;;;;;;;;;;;19.10;49.20;;;;;;6144474;23;19929;-81
2022/09/28 09:18:07;;;;;;;;;;;19.10;49.60;;;;;;6144013;23;19921;-81
2022/09/28 09:20:42;;;;;;;;;;;19.20;51.50;;;;;;6140276;23;19928;-80
2022/09/28 09:23:16;;;;;;;;;;;19.50;50.80;;;;;;6110069;23;20262;-82
2022/09/28 09:25:46;;;;;;;;;;;19.50;50.80;;;;;;6140199;23;19909;-83
2022/09/28 09:28:31;;;;;;;;;;;19.60;50.60;;;;;;6120702;23;19925;-80
2022/09/28 09:31:01;;;;;;;;;;;19.80;51.00;;;;;;6137068;23;19924;-79
2022/09/28 09:33:28;;;;;;;;;;;19.90;49.30;;;;;;6136485;23;20228;-80
2022/09/28 09:36:03;;;;;;;;;;;20.10;48.80;;;;;;6129614;23;19936;-81
2022/09/28 09:38:29;;;;;;;;;;;19.80;50.60;;;;;;6120217;23;19921;-80
2022/09/28 09:41:15;;;;;;;;;;;19.80;50.30;;;;;;6128152;23;19921;-80
2022/09/28 09:43:58;;;;;;;;;;;19.70;51.40;;;;;;6144427;23;19901;-82
2022/09/28 09:46:36;;;;;;;;;;;19.70;49.00;;;;;;6142056;23;19917;-80
2022/09/28 09:49:12;;;;;;;;;;;19.60;48.70;;;;;;6139523;23;19945;-80
2022/09/28 09:51:44;;;;;;;;;;;19.30;50.10;;;;;;6139258;23;19912;-82
2022/09/28 09:54:19;;;;;;;;;;;19.20;50.50;;;;;;6118722;23;19917;-81
2022/09/28 09:56:55;;;;;;;;;;;19.30;50.50;;;;;;6142194;23;19941;-81
2022/09/28 09:59:24;;;;;;;;;;;19.70;50.80;;;;;;6146036;23;19908;-81
2022/09/28 10:01:52;;;;;;;;;;;20.10;49.10;;;;;;6144136;23;19901;-80
2022/09/28 10:04:24;;;;;;;;;;;20.00;48.00;;;;;;6144228;23;19950;-81
2022/09/28 10:06:55;;;;;;;;;;;20.10;49.00;;;;;;6142218;23;19921;-80
2022/09/28 10:09:40;;;;;;;;;;;20.30;48.10;;;;;;6145071;23;19901;-81
2022/09/28 10:12:08;;;;;;;;;;;20.50;48.00;;;;;;6143247;23;20310;-82
2022/09/28 10:14:36;;;;;;;;;;;20.80;48.20;;;;;;6143002;23;19921;-80
2022/09/28 10:17:03;;;;;;;;;;;20.90;47.30;;;;;;6119340;23;19925;-81
2022/09/28 10:19:31;;;;;;;;;;;21.10;46.60;;;;;;6144181;23;19910;-80
2022/09/28 10:22:01;;;;;;;;;;;21.30;46.50;;;;;;6142789;23;19907;-82
2022/09/28 10:24:28;;;;;;;;;;;21.30;46.30;;;;;;6145332;23;19901;-82
2022/09/28 10:26:57;;;;;;;;;;;21.00;45.60;;;;;;6143538;23;20297;-81
2022/09/28 10:29:28;;;;;;;;;;;20.90;47.00;;;;;;6141015;23;19905;-82
2022/09/28 10:31:55;;;;;;;;;;;21.20;46.70;;;;;;6141401;23;19925;-83
2022/09/28 10:34:29;;;;;;;;;;;21.40;45.50;;;;;;6144699;23;19925;-82
2022/09/28 10:36:58;;;;;;;;;;;21.50;47.40;;;;;;6144548;23;19912;-82
2022/09/28 10:39:36;;;;;;;;;;;21.40;44.60;;;;;;6144430;23;20326;-82
2022/09/28 10:42:11;;;;;;;;;;;21.40;43.40;;;;;;6120261;23;19917;-81
2022/09/28 10:44:57;;;;;;;;;;;21.40;43.00;;;;;;6145551;23;19909;-82
2022/09/28 10:47:25;;;;;;;;;;;21.00;44.40;;;;;;6145864;23;19909;-81
2022/09/28 10:49:53;;;;;;;;;;;21.00;47.00;;;;;;6139175;23;19917;-83
2022/09/28 10:52:40;;;;;;;;;;;20.60;46.10;;;;;;6132681;23;19917;-82
2022/09/28 10:55:19;;;;;;;;;;;20.30;45.30;;;;;;6140214;23;19902;-81
2022/09/28 10:57:47;;;;;;;;;;;20.30;48.10;;;;;;6139621;23;19921;-82
2022/09/28 11:00:28;;;;;;;;;;;20.30;46.90;;;;;;6113040;23;19921;-82
2022/09/28 11:02:55;;;;;;;;;;;20.20;47.90;;;;;;6132563;23;20339;-80
2022/09/28 11:05:26;;;;;;;;;;;20.30;46.50;;;;;;6135227;23;19917;-82
2022/09/28 11:07:56;;;;;;;;;;;20.00;46.20;;;;;;6135556;23;19917;-82
2022/09/28 11:10:26;;;;;;;;;;;20.00;46.00;;;;;;6135951;23;19924;-82
2022/09/28 11:12:53;;;;;;;;;;;19.80;45.60;;;;;;6139759;23;19940;-81
2022/09/28 11:15:30;;;;;;;;;;;19.90;48.20;;;;;;6138072;23;19917;-82
2022/09/28 11:18:17;;;;;;;;;;;19.90;45.50;;;;;;6116770;23;20327;-81
2022/09/28 11:20:44;;;;;;;;;;;19.80;45.50;;;;;;6138390;23;19925;-81
2022/09/28 11:23:29;;;;;;;;;;;19.90;46.00;;;;;;6116867;23;20298;-81
2022/09/28 11:25:57;;;;;;;;;;;20.10;46.10;;;;;;6139682;23;19901;-82
2022/09/28 11:28:28;;;;;;;;;;;20.40;47.20;;;;;;6139050;23;20299;-81
2022/09/28 11:30:54;;;;;;;;;;;20.50;45.60;;;;;;6135076;23;19918;-82
2022/09/28 11:33:28;;;;;;;;;;;20.30;46.00;;;;;;6142135;23;19957;-82
2022/09/28 11:36:00;;;;;;;;;;;20.40;47.90;;;;;;6139489;23;19928;-82
2022/09/28 11:38:32;;;;;;;;;;;20.50;45.70;;;;;;6142170;23;19933;-81
2022/09/28 11:41:08;;;;;;;;;;;20.60;46.30;;;;;;6139020;23;19924;-82
2022/09/28 11:43:53;;;;;;;;;;;21.00;47.30;;;;;;6140519;23;19920;-82
2022/09/28 11:46:29;;;;;;;;;;;21.20;45.30;;;;;;6134030;23;20410;-82
2022/09/28 11:49:16;;;;;;;;;;;20.60;45.00;;;;;;6128795;23;19964;-82
2022/09/28 11:51:44;;;;;;;;;;;20.70;47.60;;;;;;6091861;23;19968;-82
2022/09/28 11:54:16;;;;;;;;;;;21.00;45.90;;;;;;6107351;23;19949;-81
2022/09/28 11:56:46;;;;;;;;;;;20.80;46.10;;;;;;6126836;23;19917;-81
2022/09/28 11:59:13;;;;;;;;;;;21.10;45.10;;;;;;6100623;23;19921;-80
2022/09/28 12:01:40;;;;;;;;;;;21.10;44.50;;;;;;6123227;23;19961;-81
2022/09/28 12:04:16;;;;;;;;;;;21.10;45.40;;;;;;6122895;23;19948;-81
2022/09/28 12:06:48;;;;;;;;;;;21.40;44.60;;;;;;6120424;23;20326;-81
2022/09/28 12:09:23;;;;;;;;;;;22.10;44.10;;;;;;6127019;23;19902;-81
2022/09/28 12:11:54;;;;;;;;;;;22.60;42.80;;;;;;6123608;23;20258;-80
2022/09/28 12:14:29;;;;;;;;;;;23.20;42.70;;;;;;6126561;23;20255;-82
2022/09/28 12:16:58;;;;;;;;;;;23.50;41.00;;;;;;6122037;23;19960;-82
2022/09/28 12:19:44;;;;;;;;;;;23.50;40.20;;;;;;6121775;23;19917;-81
2022/09/28 12:22:16;;;;;;;;;;;23.70;41.20;;;;;;6101395;23;19941;-81
2022/09/28 12:24:47;;;;;;;;;;;22.90;40.10;;;;;;6124919;23;20258;-81
2022/09/28 12:27:24;;;;;;;;;;;22.20;41.10;;;;;;6127917;23;19924;-81
2022/09/28 12:29:54;;;;;;;;;;;22.30;42.00;;;;;;6125694;23;20311;-81
2022/09/28 12:32:20;;;;;;;;;;;22.20;41.00;;;;;;6110571;23;19921;-81
2022/09/28 12:34:47;;;;;;;;;;;21.80;41.80;;;;;;6144676;23;19901;-80
2022/09/28 12:37:20;;;;;;;;;;;21.90;44.10;;;;;;6113187;23;19926;-81
2022/09/28 12:39:53;;;;;;;;;;;21.70;42.50;;;;;;6137632;23;19932;-81
2022/09/28 12:42:43;;;;;;;;;;;21.70;44.80;;;;;;6141467;23;19940;-81
2022/09/28 12:45:26;;;;;;;;;;;22.20;43.70;;;;;;6135914;23;19947;-81
2022/09/28 12:48:06;;;;;;;;;;;22.60;42.70;;;;;;6136877;23;19917;-82
2022/09/28 12:50:39;;;;;;;;;;;22.60;41.30;;;;;;6129270;23;19917;-81
2022/09/28 12:53:22;;;;;;;;;;;22.50;41.00;;;;;;6128701;23;19941;-81
2022/09/28 12:55:49;;;;;;;;;;;22.60;41.50;;;;;;6132197;23;19932;-81
2022/09/28 12:58:32;;;;;;;;;;;22.40;42.60;;;;;;6139313;23;19936;-81
2022/09/28 13:01:14;;;;;;;;;;;22.10;44.10;;;;;;6141106;23;19921;-82
2022/09/28 13:04:16;;;;;;;;;;;22.20;44.70;;;;;;6111981;23;19921;-81
2022/09/28 13:06:46;;;;;;;;;;;22.10;43.70;;;;;;6030402;23;19989;-81
2022/09/28 13:09:18;;;;;;;;;;;22.10;43.50;;;;;;6099654;23;19940;-81
2022/09/28 13:11:45;;;;;;;;;;;22.10;44.50;;;;;;6135544;23;19917;-81
2022/09/28 13:14:45;;;;;;;;;;;22.00;44.90;;;;;;6134558;23;19921;-81
2022/09/28 13:17:25;;;;;;;;;;;22.20;43.90;;;;;;6077968;23;19917;-82
2022/09/28 13:20:00;;;;;;;;;;;22.60;43.80;;;;;;6135025;23;19936;-81
2022/09/28 13:22:27;;;;;;;;;;;22.90;43.00;;;;;;6133298;23;19924;-81
2022/09/28 13:24:55;;;;;;;;;;;23.10;42.90;;;;;;6123576;23;19957;-82
2022/09/28 13:27:32;;;;;;;;;;;23.20;41.70;;;;;;6122505;23;19949;-80
2022/09/28 13:29:59;;;;;;;;;;;23.20;42.20;;;;;;6119975;23;19948;-82
2022/09/28 13:32:30;;;;;;;;;;;23.20;42.10;;;;;;6127141;23;19940;-81
2022/09/28 13:34:57;;;;;;;;;;;23.20;41.50;;;;;;6134783;23;19944;-82
2022/09/28 13:37:24;;;;;;;;;;;23.10;40.90;;;;;;6140820;23;20444;-82
2022/09/28 13:39:57;;;;;;;;;;;22.70;43.10;;;;;;6143066;23;19921;-81
2022/09/28 13:42:40;;;;;;;;;;;22.50;43.40;;;;;;6144269;23;19902;-81
2022/09/28 13:45:14;;;;;;;;;;;21.80;44.40;;;;;;6144894;23;19921;-82
2022/09/28 13:47:43;;;;;;;;;;;21.80;45.30;;;;;;6122378;23;19909;-81
2022/09/28 13:50:19;;;;;;;;;;;22.30;45.10;;;;;;6143970;23;19909;-82
2022/09/28 13:52:46;;;;;;;;;;;22.50;43.80;;;;;;6145337;23;20378;-82
2022/09/28 13:55:13;;;;;;;;;;;22.10;45.50;;;;;;6144181;23;19924;-81
2022/09/28 13:57:52;;;;;;;;;;;21.60;45.00;;;;;;6145341;23;20278;-83
2022/09/28 14:00:27;;;;;;;;;;;21.30;45.90;;;;;;6144272;23;19905;-81
2022/09/28 14:03:03;;;;;;;;;;;21.20;47.00;;;;;;6142608;23;19928;-81
2022/09/28 14:05:33;;;;;;;;;;;21.50;47.30;;;;;;6137442;23;19978;-80
2022/09/28 14:08:19;;;;;;;;;;;21.70;45.80;;;;;;6136299;23;19928;-82
2022/09/28 14:10:50;;;;;;;;;;;22.00;44.60;;;;;;6143049;23;19921;-82
2022/09/28 14:13:36;;;;;;;;;;;22.40;45.20;;;;;;6138243;23;19988;-81
2022/09/28 14:16:19;;;;;;;;;;;22.80;45.30;;;;;;6132738;23;19945;-81
2022/09/28 14:18:54;;;;;;;;;;;23.10;43.10;;;;;;6130835;23;19927;-80
2022/09/28 14:21:45;;;;;;;;;;;23.50;42.30;;;;;;6107960;23;19924;-82
2022/09/28 14:24:18;;;;;;;;;;;23.20;42.40;;;;;;6111621;23;19921;-82
2022/09/28 14:26:47;;;;;;;;;;;23.00;43.90;;;;;;6135873;23;20363;-81
2022/09/28 14:29:20;;;;;;;;;;;23.00;44.40;;;;;;6137864;23;19947;-80
2022/09/28 14:31:47;;;;;;;;;;;23.10;43.90;;;;;;6141573;23;19956;-80
2022/09/28 14:34:31;;;;;;;;;;;23.30;43.80;;;;;;6139200;23;19928;-80
2022/09/28 14:42:30;;;;;;;;;;;23.30;43.20;;;;;;6112399;23;20235;-82
2022/09/28 14:45:03;;;;;;;;;;;23.20;43.80;;;;;;6141706;23;19944;-80
2022/09/28 14:47:34;;;;;;;;;;;23.00;44.60;;;;;;6141075;23;19933;-81
2022/09/28 14:50:01;;;;;;;;;;;22.90;44.60;;;;;;6138650;23;19961;-81
2022/09/28 14:52:37;;;;;;;;;;;22.80;44.80;;;;;;6135115;23;20374;-80
2022/09/28 14:55:10;;;;;;;;;;;22.50;44.70;;;;;;6137995;23;19995;-82